Portada
METAR-TAF:

METAR-TAF

Aeropuertos :

Aeropuerto Internacional de Ciudad del Cabo

Ciudad del Cabo, Sudáfrica

latitud: 33-59S, longitud: 018-36E, altitud: 42 m

Observación

El informe se hizo hace 18 minutos, a las 22:00 UTC
Viento 7 kt del noreste
Temperatura 11°C
Humedad 100%
Presión 1023 hPa
Visibilidad 10 km o más
Escasas nubes a una altura de 3500 ft

METAR: FACT 192200Z 05007KT 9999 FEW035 11/11 Q1023 NOSIG

Hora: 00:18 (22:18 UTC)

Pronóstico

El informe se hizo hace 6 horas y 18 minutos, a las 16:00 UTC
Pronóstico válido del 19 a las 18 UTC al 20 a las 24 UTC
Viento 8 kt del norte
Visibilidad 10 km o más
Nubes dispersas a una altura de 2500 ft
A partir de las 20 a las 0800 UTC
Viento 10 kt del norte
Visibilidad 10 km o más
sin nubes por debajo de 1500 m y sin presencia de cumulonimbus.

TAF: FACT 191600Z 1918/2024 36008KT 9999 SCT025 FM200800 36010KT CAVOK TX18/2012Z TN10/2006Z

Observaciones y pronósticos meteorológicos de más de 4000 aeropuertos (mensajes METAR y TAF).

Los puntos amarillos y rojos representan las estaciones disponibles.

Ponga el ratón en el punto deseado para ver el nombre de la estación.

Haga clic para ver las observaciones y los pronósticos meteorológicos.

Para cambiar el mapa : haga clic en los botones verdes con una cruz de color negro para hacer un zoom, en el botón verde con un guión para alejar o en las flechas verdes para mapas adyacentes.


METAR-TAF: